Time;durP1;ratioP1;P1;durP2;ratioP2;P2;SDS_P1;SDS_P2;PMS_P1;PMS_P2;Temp;Humidity;BMP_temperature;BMP_pressure;BME280_temperature;BME280_humidity;BME280_pressure;Samples;Min_cycle;Max_cycle;Signal;HPM_P1;HPM_P2
2022/06/20 00:01:06;;;;;;;6.00;5.50;;;;;;;;;;5013705;28;20203;-87
2022/06/20 00:03:37;;;;;;;6.20;5.68;;;;;;;;;;5013302;28;20683;-87
2022/06/20 00:06:05;;;;;;;6.03;5.53;;;;;;;;;;5013075;28;20664;-87
2022/06/20 00:08:33;;;;;;;6.90;6.13;;;;;;;;;;5012837;28;20289;-86
2022/06/20 00:11:00;;;;;;;6.15;5.65;;;;;;;;;;5013450;28;20209;-87
2022/06/20 00:13:32;;;;;;;5.65;5.18;;;;;;;;;;5013179;28;20258;-87
2022/06/20 00:16:00;;;;;;;6.40;5.80;;;;;;;;;;5013341;28;20202;-87
2022/06/20 00:18:29;;;;;;;6.32;5.72;;;;;;;;;;4995363;28;20195;-87
2022/06/20 00:20:58;;;;;;;5.65;5.07;;;;;;;;;;5013237;28;20211;-87
2022/06/20 00:23:25;;;;;;;5.70;5.20;;;;;;;;;;5012959;28;20222;-87
2022/06/20 00:25:52;;;;;;;5.97;5.38;;;;;;;;;;5009738;28;20226;-86
2022/06/20 00:28:20;;;;;;;5.50;5.10;;;;;;;;;;5012717;28;20295;-87
2022/06/20 00:30:47;;;;;;;5.93;5.43;;;;;;;;;;5012262;28;20303;-86
2022/06/20 00:33:14;;;;;;;6.00;5.50;;;;;;;;;;5012963;28;20280;-86
2022/06/20 00:35:42;;;;;;;5.97;5.40;;;;;;;;;;5013082;28;20211;-87
2022/06/20 00:38:15;;;;;;;5.93;5.32;;;;;;;;;;5013057;28;20601;-87
2022/06/20 00:40:45;;;;;;;5.85;5.28;;;;;;;;;;4998548;28;20214;-87
2022/06/20 00:43:16;;;;;;;5.93;5.43;;;;;;;;;;5012379;28;20269;-88
2022/06/20 00:45:45;;;;;;;6.13;5.63;;;;;;;;;;5012561;28;20250;-87
2022/06/20 00:48:15;;;;;;;5.65;5.10;;;;;;;;;;4993045;28;20204;-88
2022/06/20 00:50:42;;;;;;;5.90;5.40;;;;;;;;;;4998955;28;20696;-88
2022/06/20 00:53:13;;;;;;;5.75;5.35;;;;;;;;;;4996854;28;20226;-88
2022/06/20 00:55:45;;;;;;;5.88;5.45;;;;;;;;;;5000912;28;20199;-88
2022/06/20 00:58:14;;;;;;;5.78;5.30;;;;;;;;;;5012456;28;20202;-88
2022/06/20 01:00:42;;;;;;;5.80;5.30;;;;;;;;;;5012746;28;20286;-87
2022/06/20 01:03:11;;;;;;;6.30;5.80;;;;;;;;;;5012518;28;20227;-88
2022/06/20 01:05:41;;;;;;;5.88;5.28;;;;;;;;;;5012822;28;20207;-88
2022/06/20 01:08:12;;;;;;;5.40;4.90;;;;;;;;;;5012454;28;20293;-88
2022/06/20 01:10:43;;;;;;;5.97;5.40;;;;;;;;;;5007763;28;20309;-88
2022/06/20 01:13:13;;;;;;;5.50;4.97;;;;;;;;;;5016243;28;20249;-87
2022/06/20 01:15:41;;;;;;;5.57;5.18;;;;;;;;;;4996860;28;20237;-88
2022/06/20 01:18:15;;;;;;;6.13;5.63;;;;;;;;;;4996038;28;20587;-88
2022/06/20 01:20:44;;;;;;;5.50;5.00;;;;;;;;;;5011015;28;20203;-88
2022/06/20 01:23:18;;;;;;;5.35;4.95;;;;;;;;;;5016185;28;20241;-88
2022/06/20 01:25:51;;;;;;;5.50;5.00;;;;;;;;;;5016499;28;20234;-87
2022/06/20 01:28:22;;;;;;;5.63;5.22;;;;;;;;;;5015891;28;20289;-87
2022/06/20 01:30:50;;;;;;;5.35;4.85;;;;;;;;;;5015712;28;20252;-87
2022/06/20 01:33:19;;;;;;;5.85;5.35;;;;;;;;;;4996580;28;20223;-88
2022/06/20 01:38:31;;;;;;;5.97;5.38;;;;;;;;;;4999134;28;20229;-88
2022/06/20 01:43:45;;;;;;;5.65;5.15;;;;;;;;;;5015632;28;20272;-88
2022/06/20 01:46:13;;;;;;;5.55;5.13;;;;;;;;;;5015741;28;20299;-88
2022/06/20 01:48:42;;;;;;;5.50;5.00;;;;;;;;;;5015297;28;20679;-88
2022/06/20 01:51:13;;;;;;;5.47;5.07;;;;;;;;;;5014587;28;20218;-88
2022/06/20 01:53:40;;;;;;;5.35;4.95;;;;;;;;;;5015333;28;20309;-88
2022/06/20 01:56:10;;;;;;;5.78;5.28;;;;;;;;;;5015685;28;20229;-88
2022/06/20 01:58:38;;;;;;;5.65;5.15;;;;;;;;;;5015455;28;20293;-88
2022/06/20 02:01:08;;;;;;;5.40;5.00;;;;;;;;;;5015358;28;20195;-88
2022/06/20 02:03:37;;;;;;;5.95;5.45;;;;;;;;;;5015197;28;20226;-88
2022/06/20 02:06:05;;;;;;;5.75;5.10;;;;;;;;;;5015271;28;20252;-88
2022/06/20 02:08:33;;;;;;;5.55;5.15;;;;;;;;;;5015214;28;20214;-88
2022/06/20 02:11:03;;;;;;;5.32;4.93;;;;;;;;;;5014903;28;20330;-88
2022/06/20 02:13:31;;;;;;;5.30;4.90;;;;;;;;;;5014995;28;20633;-88
2022/06/20 02:16:00;;;;;;;5.40;4.93;;;;;;;;;;5014841;28;20246;-88
2022/06/20 02:18:30;;;;;;;5.47;5.07;;;;;;;;;;5014866;28;20253;-88
2022/06/20 02:20:59;;;;;;;5.85;5.35;;;;;;;;;;5011736;28;20223;-88
2022/06/20 02:23:28;;;;;;;5.35;4.85;;;;;;;;;;5015729;28;20313;-88
2022/06/20 02:25:57;;;;;;;5.80;5.30;;;;;;;;;;5014889;28;20258;-88
2022/06/20 02:28:28;;;;;;;5.70;5.30;;;;;;;;;;5014772;28;20238;-88
2022/06/20 02:30:56;;;;;;;5.57;5.07;;;;;;;;;;5014347;28;20245;-88
2022/06/20 02:33:25;;;;;;;5.75;5.18;;;;;;;;;;5015020;28;20230;-88
2022/06/20 02:35:54;;;;;;;5.82;5.38;;;;;;;;;;5014661;28;20241;-88
2022/06/20 02:38:22;;;;;;;5.53;5.10;;;;;;;;;;5014484;28;20731;-87
2022/06/20 02:40:49;;;;;;;5.97;5.38;;;;;;;;;;4995174;28;20265;-88
2022/06/20 02:43:18;;;;;;;6.00;5.50;;;;;;;;;;5008178;28;20230;-87
2022/06/20 02:45:47;;;;;;;6.13;5.55;;;;;;;;;;5014511;28;20222;-89
2022/06/20 02:48:16;;;;;;;5.75;5.22;;;;;;;;;;5013826;28;20233;-88
2022/06/20 02:50:45;;;;;;;5.80;5.18;;;;;;;;;;4995017;28;20273;-89
2022/06/20 02:53:17;;;;;;;5.80;5.20;;;;;;;;;;5014150;28;20269;-88
2022/06/20 02:55:45;;;;;;;5.47;4.97;;;;;;;;;;5014304;28;20207;-89
2022/06/20 02:58:13;;;;;;;5.28;4.88;;;;;;;;;;5002196;28;20197;-89
2022/06/20 03:00:43;;;;;;;5.85;5.35;;;;;;;;;;5008871;28;20198;-89
2022/06/20 03:03:14;;;;;;;5.53;5.13;;;;;;;;;;5008903;28;20317;-88
2022/06/20 03:05:41;;;;;;;5.70;5.20;;;;;;;;;;5003415;28;20248;-89
2022/06/20 03:08:10;;;;;;;5.38;4.97;;;;;;;;;;5013651;28;20253;-89
2022/06/20 03:10:40;;;;;;;5.47;5.00;;;;;;;;;;5013717;28;20250;-89
2022/06/20 03:13:09;;;;;;;5.35;4.95;;;;;;;;;;5013670;28;20234;-89
2022/06/20 03:15:37;;;;;;;5.50;5.00;;;;;;;;;;4997518;28;20272;-89
2022/06/20 03:18:06;;;;;;;5.53;5.13;;;;;;;;;;5013151;28;20234;-89
2022/06/20 03:20:33;;;;;;;5.80;5.30;;;;;;;;;;5012068;28;20207;-89
2022/06/20 03:23:04;;;;;;;5.90;5.40;;;;;;;;;;5014092;28;20272;-89
2022/06/20 03:25:32;;;;;;;5.57;5.18;;;;;;;;;;5013549;28;20203;-89
2022/06/20 03:28:01;;;;;;;5.60;5.10;;;;;;;;;;5013485;28;20238;-89
2022/06/20 03:30:31;;;;;;;5.13;4.72;;;;;;;;;;5013687;28;20226;-89
2022/06/20 03:32:59;;;;;;;5.25;4.85;;;;;;;;;;5012696;28;20246;-89
2022/06/20 03:35:30;;;;;;;5.55;5.15;;;;;;;;;;5014044;28;20210;-88
2022/06/20 03:37:58;;;;;;;5.30;4.90;;;;;;;;;;5014069;28;20182;-88
2022/06/20 03:40:26;;;;;;;5.30;4.90;;;;;;;;;;5013821;28;20194;-88
2022/06/20 03:42:54;;;;;;;5.88;5.38;;;;;;;;;;5013465;28;20313;-88
2022/06/20 03:45:23;;;;;;;5.38;4.97;;;;;;;;;;5013468;28;20202;-89
2022/06/20 03:47:52;;;;;;;5.72;5.22;;;;;;;;;;5013338;28;20205;-89
2022/06/20 03:50:22;;;;;;;5.22;4.82;;;;;;;;;;5013429;28;20254;-88
2022/06/20 03:52:51;;;;;;;5.50;5.10;;;;;;;;;;5013661;28;20269;-89
2022/06/20 03:55:23;;;;;;;5.60;5.20;;;;;;;;;;5013520;28;20294;-89
2022/06/20 03:57:53;;;;;;;5.03;4.63;;;;;;;;;;5013298;28;20215;-89
2022/06/20 04:00:24;;;;;;;5.60;5.18;;;;;;;;;;5013168;28;20199;-89
2022/06/20 04:02:56;;;;;;;5.40;5.00;;;;;;;;;;5013307;28;20230;-88
2022/06/20 04:05:26;;;;;;;5.35;4.95;;;;;;;;;;5012821;28;20233;-89
2022/06/20 04:07:55;;;;;;;5.00;4.63;;;;;;;;;;5013075;28;20203;-89
2022/06/20 04:13:18;;;;;;;5.43;5.03;;;;;;;;;;5000599;28;20270;-88
2022/06/20 04:15:46;;;;;;;5.30;4.90;;;;;;;;;;5013421;28;20198;-88
2022/06/20 04:18:28;;;;;;;5.40;5.00;;;;;;;;;;5013129;28;20217;-88
2022/06/20 04:20:59;;;;;;;5.45;5.05;;;;;;;;;;5012176;28;20203;-88
2022/06/20 04:23:28;;;;;;;5.35;4.95;;;;;;;;;;5013001;28;20250;-88
2022/06/20 04:25:59;;;;;;;5.20;4.80;;;;;;;;;;5012783;28;20253;-89
2022/06/20 04:28:28;;;;;;;5.65;5.20;;;;;;;;;;5012601;28;20588;-88
2022/06/20 04:30:57;;;;;;;5.47;5.07;;;;;;;;;;5012864;28;20254;-88
2022/06/20 04:33:29;;;;;;;5.43;5.03;;;;;;;;;;5006249;28;20230;-88
2022/06/20 04:36:05;;;;;;;5.45;4.95;;;;;;;;;;5012764;28;20269;-89
2022/06/20 04:38:33;;;;;;;5.53;5.03;;;;;;;;;;5009637;28;20198;-89
2022/06/20 04:41:02;;;;;;;5.43;4.93;;;;;;;;;;5009397;28;20202;-89
2022/06/20 04:43:43;;;;;;;5.50;5.05;;;;;;;;;;5007098;28;20718;-92
2022/06/20 04:46:16;;;;;;;5.03;4.63;;;;;;;;;;5016060;28;20244;-90
2022/06/20 04:48:45;;;;;;;5.22;4.80;;;;;;;;;;5016726;28;20671;-90
2022/06/20 04:51:16;;;;;;;5.75;5.25;;;;;;;;;;5016889;28;20222;-90
2022/06/20 04:53:45;;;;;;;6.50;5.63;;;;;;;;;;5017077;28;20253;-89
2022/06/20 04:56:13;;;;;;;5.90;5.10;;;;;;;;;;5017319;28;20218;-88
2022/06/20 04:58:45;;;;;;;6.38;5.30;;;;;;;;;;5016345;28;20226;-89
2022/06/20 05:01:15;;;;;;;10.07;5.93;;;;;;;;;;5013942;28;20636;-89
2022/06/20 05:03:43;;;;;;;7.40;5.93;;;;;;;;;;5004357;28;20254;-90
2022/06/20 05:06:18;;;;;;;10.60;6.90;;;;;;;;;;5011321;28;20254;-94
2022/06/20 05:08:52;;;;;;;10.93;6.57;;;;;;;;;;5009505;28;20205;-87
2022/06/20 05:11:22;;;;;;;11.40;6.13;;;;;;;;;;5016115;28;20313;-88
2022/06/20 05:13:53;;;;;;;8.68;5.90;;;;;;;;;;5027887;23;20239;-92
2022/06/20 05:16:27;;;;;;;9.63;5.32;;;;;;;;;;4997515;28;20727;-93
2022/06/20 05:18:56;;;;;;;8.82;5.30;;;;;;;;;;4997532;28;20298;-91
2022/06/20 05:21:26;;;;;;;9.80;5.57;;;;;;;;;;4991018;28;20203;-86
2022/06/20 05:23:58;;;;;;;8.40;5.30;;;;;;;;;;4990364;28;20231;-86
2022/06/20 05:26:28;;;;;;;8.75;5.07;;;;;;;;;;4977805;28;20200;-87
2022/06/20 05:28:57;;;;;;;8.82;5.18;;;;;;;;;;4987109;28;20195;-90
2022/06/20 05:31:28;;;;;;;8.20;4.63;;;;;;;;;;4980230;28;20757;-90
2022/06/20 05:34:09;;;;;;;6.72;4.18;;;;;;;;;;4978209;28;20231;-91
2022/06/20 05:37:17;;;;;;;6.47;4.50;;;;;;;;;;4987561;28;20206;-93
2022/06/20 05:52:25;;;;;;;6.50;4.30;;;;;;;;;;4903360;28;20228;-94
2022/06/20 05:58:09;;;;;;;6.03;4.38;;;;;;;;;;4995774;28;20220;-91
2022/06/20 06:04:05;;;;;;;5.15;4.25;;;;;;;;;;4972399;28;20231;-95
2022/06/20 06:06:35;;;;;;;6.85;4.72;;;;;;;;;;4996910;28;20227;-88
2022/06/20 06:09:04;;;;;;;8.35;4.60;;;;;;;;;;4986271;28;20200;-87
2022/06/20 06:11:37;;;;;;;8.38;4.60;;;;;;;;;;4988678;28;20224;-88
2022/06/20 06:14:08;;;;;;;6.78;4.63;;;;;;;;;;4983329;28;20270;-88
2022/06/20 06:16:48;;;;;;;6.72;4.63;;;;;;;;;;4982595;28;20199;-88
2022/06/20 06:19:18;;;;;;;6.55;4.70;;;;;;;;;;4982997;28;20685;-89
2022/06/20 06:21:47;;;;;;;8.68;4.50;;;;;;;;;;4980900;28;20196;-86
2022/06/20 06:24:16;;;;;;;7.80;4.70;;;;;;;;;;4990312;28;20223;-87
2022/06/20 06:26:46;;;;;;;7.80;4.45;;;;;;;;;;4991234;28;20204;-87
2022/06/20 06:29:21;;;;;;;6.53;4.35;;;;;;;;;;4990452;28;20199;-88
2022/06/20 06:31:51;;;;;;;7.97;4.47;;;;;;;;;;4989028;28;20695;-84
2022/06/20 06:34:24;;;;;;;7.05;4.55;;;;;;;;;;4991843;28;20251;-89
2022/06/20 06:36:53;;;;;;;6.72;3.90;;;;;;;;;;4990517;28;20258;-88
2022/06/20 06:39:23;;;;;;;8.48;4.43;;;;;;;;;;4992644;28;20223;-87
2022/06/20 06:41:55;;;;;;;7.38;4.20;;;;;;;;;;4994643;28;20257;-87
2022/06/20 06:44:27;;;;;;;6.28;4.07;;;;;;;;;;4993472;28;20227;-87
2022/06/20 06:46:58;;;;;;;7.88;4.70;;;;;;;;;;4991609;28;20214;-85
2022/06/20 06:49:32;;;;;;;8.18;4.45;;;;;;;;;;4988571;28;20305;-88
2022/06/20 06:52:04;;;;;;;8.73;5.13;;;;;;;;;;4994201;28;20302;-93
2022/06/20 06:54:57;;;;;;;7.47;4.90;;;;;;;;;;4997118;28;20254;-94
2022/06/20 06:57:29;;;;;;;6.40;4.40;;;;;;;;;;4997765;28;20294;-91
2022/06/20 07:00:16;;;;;;;7.07;4.68;;;;;;;;;;4989669;28;20321;-89
2022/06/20 07:02:51;;;;;;;6.47;4.35;;;;;;;;;;4989232;28;20768;-88
2022/06/20 07:05:22;;;;;;;5.28;4.53;;;;;;;;;;4992887;28;20202;-89
2022/06/20 07:07:57;;;;;;;8.75;4.75;;;;;;;;;;4993831;28;20212;-89
2022/06/20 07:10:28;;;;;;;5.53;4.57;;;;;;;;;;4990878;28;20203;-88
2022/06/20 07:13:02;;;;;;;7.57;4.68;;;;;;;;;;4988536;28;20231;-89
2022/06/20 07:15:34;;;;;;;6.78;4.70;;;;;;;;;;4994613;28;20207;-89
2022/06/20 07:18:05;;;;;;;6.50;4.68;;;;;;;;;;4992725;28;20203;-88
2022/06/20 07:20:39;;;;;;;7.20;4.70;;;;;;;;;;4990876;28;20263;-88
2022/06/20 07:23:08;;;;;;;10.02;5.35;;;;;;;;;;4994098;28;20219;-87
2022/06/20 07:25:40;;;;;;;7.43;4.68;;;;;;;;;;4990084;28;20200;-87
2022/06/20 07:28:14;;;;;;;5.95;4.53;;;;;;;;;;4997739;28;20203;-88
2022/06/20 07:30:46;;;;;;;9.90;4.97;;;;;;;;;;4990431;28;20214;-89
2022/06/20 07:33:18;;;;;;;7.63;4.85;;;;;;;;;;4994189;28;20246;-89
2022/06/20 07:35:49;;;;;;;7.28;4.95;;;;;;;;;;4986458;28;20304;-87
2022/06/20 07:38:18;;;;;;;6.70;5.00;;;;;;;;;;4990530;28;20203;-88
2022/06/20 07:40:48;;;;;;;7.32;4.72;;;;;;;;;;4990726;28;20641;-89
2022/06/20 07:43:19;;;;;;;5.95;4.93;;;;;;;;;;4992681;28;20291;-89
2022/06/20 07:45:48;;;;;;;6.47;4.80;;;;;;;;;;4992782;28;20203;-88
2022/06/20 07:48:18;;;;;;;7.15;4.78;;;;;;;;;;4992599;28;20231;-89
2022/06/20 07:50:49;;;;;;;7.47;4.80;;;;;;;;;;4982973;28;20231;-88
2022/06/20 07:53:19;;;;;;;6.80;5.00;;;;;;;;;;4990160;28;20233;-88
2022/06/20 07:55:49;;;;;;;7.53;4.82;;;;;;;;;;4990679;28;20211;-88
2022/06/20 07:58:21;;;;;;;5.50;4.53;;;;;;;;;;4990932;28;20199;-89
2022/06/20 08:00:51;;;;;;;6.97;5.10;;;;;;;;;;4987981;28;20215;-88
2022/06/20 08:03:21;;;;;;;8.57;5.15;;;;;;;;;;4991865;28;20215;-89
2022/06/20 08:05:50;;;;;;;8.23;4.82;;;;;;;;;;4993261;28;20249;-88
2022/06/20 08:08:19;;;;;;;6.97;4.65;;;;;;;;;;4985902;28;20243;-90
2022/06/20 08:10:50;;;;;;;5.65;4.68;;;;;;;;;;4990225;28;20223;-88
2022/06/20 08:13:21;;;;;;;9.18;5.15;;;;;;;;;;4987832;28;20302;-89
2022/06/20 08:15:53;;;;;;;6.13;4.85;;;;;;;;;;4990693;28;20285;-89
2022/06/20 08:18:20;;;;;;;8.75;5.10;;;;;;;;;;4987642;28;20222;-89
2022/06/20 08:20:49;;;;;;;7.95;4.90;;;;;;;;;;4992863;28;20207;-89
2022/06/20 08:23:18;;;;;;;7.10;4.93;;;;;;;;;;4990258;28;20223;-90
2022/06/20 08:25:49;;;;;;;5.90;4.68;;;;;;;;;;4990248;28;20208;-88
2022/06/20 08:28:18;;;;;;;7.78;4.88;;;;;;;;;;4985063;28;20208;-89
2022/06/20 08:30:50;;;;;;;6.40;4.90;;;;;;;;;;4988973;28;20222;-88
2022/06/20 08:33:21;;;;;;;7.43;4.88;;;;;;;;;;4992652;28;20223;-89
2022/06/20 08:35:51;;;;;;;7.03;4.85;;;;;;;;;;4993374;28;20207;-88
2022/06/20 08:38:23;;;;;;;6.18;4.68;;;;;;;;;;4991664;28;20567;-89
2022/06/20 08:41:14;;;;;;;5.45;4.93;;;;;;;;;;4988143;28;20204;-88
2022/06/20 08:43:52;;;;;;;7.47;4.78;;;;;;;;;;4971190;28;20250;-88
2022/06/20 08:46:28;;;;;;;6.70;5.00;;;;;;;;;;4991498;28;20255;-90
2022/06/20 08:49:10;;;;;;;7.93;5.00;;;;;;;;;;4993105;28;20230;-89
2022/06/20 08:52:09;;;;;;;7.50;5.30;;;;;;;;;;4987498;28;20322;-88
2022/06/20 08:54:45;;;;;;;7.32;5.22;;;;;;;;;;4987165;28;20649;-88
2022/06/20 08:57:14;;;;;;;7.82;5.15;;;;;;;;;;4993774;28;20206;-89
2022/06/20 08:59:59;;;;;;;5.97;5.00;;;;;;;;;;4988860;28;20245;-88
2022/06/20 09:02:46;;;;;;;7.47;5.03;;;;;;;;;;4989333;28;20229;-88
2022/06/20 09:05:37;;;;;;;5.80;4.78;;;;;;;;;;4993209;28;20238;-89
2022/06/20 09:08:12;;;;;;;5.38;4.45;;;;;;;;;;4973791;28;20306;-89
2022/06/20 09:10:47;;;;;;;7.22;4.82;;;;;;;;;;4987513;28;20254;-90
2022/06/20 09:13:24;;;;;;;7.38;4.90;;;;;;;;;;4985245;28;20219;-88
2022/06/20 09:15:58;;;;;;;7.32;4.88;;;;;;;;;;4987527;28;20207;-89
2022/06/20 09:18:35;;;;;;;6.88;5.10;;;;;;;;;;4992323;28;20716;-89
2022/06/20 09:21:09;;;;;;;7.20;5.13;;;;;;;;;;4992066;28;20571;-88
2022/06/20 09:23:52;;;;;;;5.40;4.90;;;;;;;;;;4990904;28;20223;-87
2022/06/20 09:26:25;;;;;;;7.13;4.93;;;;;;;;;;4989615;28;20207;-89
2022/06/20 09:29:04;;;;;;;6.82;5.05;;;;;;;;;;4988002;28;20211;-89
2022/06/20 09:31:43;;;;;;;5.60;4.93;;;;;;;;;;4990113;28;20273;-88
2022/06/20 09:34:28;;;;;;;6.57;5.28;;;;;;;;;;4992532;28;20297;-89
2022/06/20 09:37:07;;;;;;;6.18;5.22;;;;;;;;;;4960371;28;20318;-88
2022/06/20 09:39:39;;;;;;;8.90;5.38;;;;;;;;;;4993781;28;20294;-89
2022/06/20 09:42:13;;;;;;;8.07;5.30;;;;;;;;;;4996365;28;20222;-89
2022/06/20 09:44:45;;;;;;;7.07;5.10;;;;;;;;;;4993565;28;20234;-88
2022/06/20 09:47:21;;;;;;;6.43;5.03;;;;;;;;;;4993975;28;20231;-89
2022/06/20 09:49:52;;;;;;;7.75;5.32;;;;;;;;;;4996431;28;20207;-88
2022/06/20 09:52:22;;;;;;;4.97;4.50;;;;;;;;;;4994472;28;20218;-87
2022/06/20 09:54:54;;;;;;;8.20;5.20;;;;;;;;;;4990323;28;20302;-88
2022/06/20 09:57:32;;;;;;;5.78;5.07;;;;;;;;;;4995758;28;20203;-87
2022/06/20 10:00:04;;;;;;;5.75;4.95;;;;;;;;;;4989503;28;20207;-88
2022/06/20 10:02:37;;;;;;;6.50;5.10;;;;;;;;;;4995588;28;20257;-88
2022/06/20 10:05:13;;;;;;;8.38;4.68;;;;;;;;;;4991640;28;20203;-87
2022/06/20 10:07:47;;;;;;;7.65;5.05;;;;;;;;;;4995386;28;20207;-88
2022/06/20 10:10:16;;;;;;;5.65;4.88;;;;;;;;;;4996794;28;20212;-87
2022/06/20 10:12:46;;;;;;;7.43;4.70;;;;;;;;;;4988475;28;20270;-86
2022/06/20 10:15:19;;;;;;;7.32;5.20;;;;;;;;;;4995039;28;20199;-87
2022/06/20 10:17:58;;;;;;;4.82;4.28;;;;;;;;;;5009741;28;20231;-86
2022/06/20 10:20:34;;;;;;;7.65;4.53;;;;;;;;;;4995381;28;20207;-88
2022/06/20 10:23:12;;;;;;;6.95;4.85;;;;;;;;;;4993468;28;20301;-86
2022/06/20 10:25:48;;;;;;;8.35;4.80;;;;;;;;;;4990370;28;20266;-86
2022/06/20 10:28:16;;;;;;;6.57;4.97;;;;;;;;;;4987631;28;20207;-85
2022/06/20 10:30:48;;;;;;;5.50;4.88;;;;;;;;;;4986132;28;20215;-86
2022/06/20 10:33:22;;;;;;;6.82;5.00;;;;;;;;;;4988144;28;20223;-86
2022/06/20 10:36:09;;;;;;;7.55;4.60;;;;;;;;;;4992392;28;20243;-93
2022/06/20 10:45:07;;;;;;;6.35;5.18;;;;;;;;;;4933675;28;20227;-91
2022/06/20 10:47:39;;;;;;;5.63;5.03;;;;;;;;;;4985855;28;20215;-87
2022/06/20 10:50:22;;;;;;;6.50;4.70;;;;;;;;;;4985015;28;20212;-88
2022/06/20 10:53:03;;;;;;;7.53;4.65;;;;;;;;;;4985097;28;20226;-86
2022/06/20 10:55:42;;;;;;;6.15;4.65;;;;;;;;;;4990844;28;20219;-91
2022/06/20 10:58:14;;;;;;;6.85;4.65;;;;;;;;;;4987675;28;20230;-88
2022/06/20 11:00:47;;;;;;;5.00;4.40;;;;;;;;;;4988611;28;20269;-86
2022/06/20 11:03:30;;;;;;;6.38;5.00;;;;;;;;;;4994929;28;20311;-87
2022/06/20 11:06:01;;;;;;;5.03;4.53;;;;;;;;;;4993900;28;20203;-87
2022/06/20 11:08:33;;;;;;;5.45;4.95;;;;;;;;;;4993350;28;20266;-86
2022/06/20 11:11:06;;;;;;;5.95;5.00;;;;;;;;;;4992945;28;20302;-88
2022/06/20 11:13:38;;;;;;;7.03;4.93;;;;;;;;;;4993935;28;20262;-87
2022/06/20 11:16:14;;;;;;;5.30;4.80;;;;;;;;;;4993613;28;20215;-88
2022/06/20 11:18:49;;;;;;;4.97;4.47;;;;;;;;;;4991531;28;20202;-87
2022/06/20 11:21:20;;;;;;;4.97;4.47;;;;;;;;;;4988330;28;20652;-88
2022/06/20 11:23:51;;;;;;;5.53;4.15;;;;;;;;;;4994540;28;20223;-88
2022/06/20 11:26:22;;;;;;;5.18;4.57;;;;;;;;;;4993267;28;20597;-87
2022/06/20 11:28:55;;;;;;;5.78;4.45;;;;;;;;;;4993936;28;20210;-87
2022/06/20 11:31:27;;;;;;;5.22;4.72;;;;;;;;;;4994107;28;20307;-86
2022/06/20 11:34:06;;;;;;;5.82;4.60;;;;;;;;;;4993911;28;20247;-86
2022/06/20 11:36:51;;;;;;;5.20;4.70;;;;;;;;;;4993988;28;20207;-87
2022/06/20 11:39:24;;;;;;;5.05;4.43;;;;;;;;;;4984826;28;20211;-86
2022/06/20 11:41:53;;;;;;;4.97;4.50;;;;;;;;;;4994304;28;20211;-87
2022/06/20 11:44:28;;;;;;;4.95;4.50;;;;;;;;;;4993798;28;20238;-86
2022/06/20 11:47:21;;;;;;;5.68;4.50;;;;;;;;;;4994632;28;20209;-87
2022/06/20 11:49:58;;;;;;;5.20;4.70;;;;;;;;;;4992926;28;20587;-86
2022/06/20 11:52:29;;;;;;;5.05;4.47;;;;;;;;;;4988057;28;20218;-86
2022/06/20 11:55:09;;;;;;;4.57;4.10;;;;;;;;;;4988154;28;20222;-86
2022/06/20 11:57:39;;;;;;;6.13;4.55;;;;;;;;;;4993966;28;20281;-88
2022/06/20 12:00:18;;;;;;;7.47;5.07;;;;;;;;;;4993911;28;20243;-89
2022/06/20 12:02:54;;;;;;;5.60;4.63;;;;;;;;;;4993522;28;20230;-87
2022/06/20 12:05:33;;;;;;;7.00;4.78;;;;;;;;;;4993651;28;20214;-87
2022/06/20 12:08:07;;;;;;;7.00;4.57;;;;;;;;;;4987267;28;20207;-87
2022/06/20 12:10:38;;;;;;;7.47;4.82;;;;;;;;;;4988647;28;20211;-87
2022/06/20 12:13:09;;;;;;;4.85;4.40;;;;;;;;;;4993551;28;20358;-88
2022/06/20 12:15:44;;;;;;;6.55;4.35;;;;;;;;;;4997849;28;20214;-88
2022/06/20 12:18:31;;;;;;;7.95;4.47;;;;;;;;;;4993578;28;20265;-88
2022/06/20 12:23:53;;;;;;;6.00;4.65;;;;;;;;;;4994001;28;20227;-88
2022/06/20 12:26:22;;;;;;;6.82;5.05;;;;;;;;;;4996369;28;20204;-88
2022/06/20 12:28:50;;;;;;;7.97;4.55;;;;;;;;;;5023869;22;21030;-84
2022/06/20 12:31:21;;;;;;;6.80;4.57;;;;;;;;;;5013525;28;20206;-84
2022/06/20 12:33:49;;;;;;;7.95;4.53;;;;;;;;;;5021772;28;20244;-85
2022/06/20 12:36:23;;;;;;;7.50;4.30;;;;;;;;;;5031927;28;20213;-84
2022/06/20 12:38:52;;;;;;;5.85;4.15;;;;;;;;;;5033119;28;20226;-82
2022/06/20 12:41:21;;;;;;;6.03;4.00;;;;;;;;;;5033977;28;20236;-84
2022/06/20 12:43:54;;;;;;;5.85;3.70;;;;;;;;;;5017167;28;20274;-82
2022/06/20 12:46:50;;;;;;;6.05;4.10;;;;;;;;;;5019977;28;20733;-85
2022/06/20 12:49:25;;;;;;;6.82;3.85;;;;;;;;;;5017009;28;20261;-84
2022/06/20 12:51:58;;;;;;;4.60;3.78;;;;;;;;;;5015754;28;20202;-84
2022/06/20 12:54:40;;;;;;;5.68;4.03;;;;;;;;;;5026663;28;20218;-83
2022/06/20 12:57:15;;;;;;;6.53;4.20;;;;;;;;;;5010687;28;20208;-85
2022/06/20 12:59:54;;;;;;;5.78;4.45;;;;;;;;;;5011142;28;20272;-83
2022/06/20 13:02:26;;;;;;;6.93;4.10;;;;;;;;;;5014922;28;20206;-83
2022/06/20 13:05:20;;;;;;;7.05;4.47;;;;;;;;;;5011711;28;20198;-84
2022/06/20 13:07:56;;;;;;;7.55;4.90;;;;;;;;;;5015012;28;20207;-83
2022/06/20 13:10:30;;;;;;;7.93;4.30;;;;;;;;;;5019939;28;20240;-84
2022/06/20 13:13:10;;;;;;;8.02;4.28;;;;;;;;;;5020618;28;20222;-85
2022/06/20 13:15:43;;;;;;;8.20;4.15;;;;;;;;;;5015532;28;20195;-83
2022/06/20 13:18:22;;;;;;;6.35;4.47;;;;;;;;;;5021519;28;20301;-84
2022/06/20 13:20:51;;;;;;;5.88;4.25;;;;;;;;;;5016080;28;20202;-84
2022/06/20 13:23:39;;;;;;;5.53;4.32;;;;;;;;;;5027644;28;20191;-84
2022/06/20 13:26:11;;;;;;;4.30;3.90;;;;;;;;;;5007152;28;20202;-85
2022/06/20 13:28:40;;;;;;;5.28;3.97;;;;;;;;;;5014623;28;20567;-85
2022/06/20 13:31:14;;;;;;;5.30;3.88;;;;;;;;;;5017536;28;20203;-84
2022/06/20 13:33:47;;;;;;;6.70;3.78;;;;;;;;;;5014458;28;20587;-83
2022/06/20 13:36:26;;;;;;;5.03;3.58;;;;;;;;;;5024044;28;20203;-85
2022/06/20 13:38:56;;;;;;;4.57;3.72;;;;;;;;;;5019615;28;20230;-85
2022/06/20 13:41:33;;;;;;;4.07;3.25;;;;;;;;;;5015635;28;20301;-85
2022/06/20 13:44:02;;;;;;;5.75;3.45;;;;;;;;;;5022215;28;20209;-84
2022/06/20 13:46:33;;;;;;;4.75;3.40;;;;;;;;;;5023147;28;20211;-84
2022/06/20 13:49:04;;;;;;;4.45;3.28;;;;;;;;;;5023943;28;20696;-84
2022/06/20 13:51:36;;;;;;;3.80;3.05;;;;;;;;;;5026834;28;20205;-83
2022/06/20 13:54:07;;;;;;;5.43;3.20;;;;;;;;;;5016496;28;20268;-84
2022/06/20 13:56:38;;;;;;;4.63;3.15;;;;;;;;;;5024173;28;20264;-84
2022/06/20 13:59:18;;;;;;;5.18;3.50;;;;;;;;;;5011686;28;20226;-84
2022/06/20 14:01:57;;;;;;;3.35;2.80;;;;;;;;;;5019652;28;20221;-83
2022/06/20 14:04:25;;;;;;;4.10;3.08;;;;;;;;;;5014382;28;20202;-85
2022/06/20 14:06:54;;;;;;;2.60;2.40;;;;;;;;;;5015245;28;20207;-84
2022/06/20 14:09:22;;;;;;;5.22;3.08;;;;;;;;;;5016568;28;20226;-88
2022/06/20 14:11:54;;;;;;;3.83;2.75;;;;;;;;;;5017927;28;20214;-84
2022/06/20 14:14:25;;;;;;;3.30;2.97;;;;;;;;;;5016280;28;20226;-84
2022/06/20 14:16:53;;;;;;;5.78;2.90;;;;;;;;;;5028189;28;20237;-84
2022/06/20 14:19:22;;;;;;;3.35;2.88;;;;;;;;;;5033575;28;20316;-84
2022/06/20 14:21:50;;;;;;;3.15;2.80;;;;;;;;;;5029401;28;20289;-84
2022/06/20 14:24:20;;;;;;;4.45;2.85;;;;;;;;;;5016000;28;20225;-84
2022/06/20 14:26:59;;;;;;;4.55;3.05;;;;;;;;;;5016129;28;20253;-83
2022/06/20 14:29:28;;;;;;;4.63;2.75;;;;;;;;;;5009626;28;20664;-83
2022/06/20 14:32:05;;;;;;;2.85;2.58;;;;;;;;;;5011205;28;20206;-82
2022/06/20 14:35:20;;;;;;;3.13;2.78;;;;;;;;;;5011554;28;20583;-84
2022/06/20 14:37:30;;;;;;;3.83;2.75;;;;;;;;;;5021875;28;20209;-84
2022/06/20 14:39:59;;;;;;;2.97;2.78;;;;;;;;;;5011698;28;20231;-84
2022/06/20 14:42:35;;;;;;;2.95;2.72;;;;;;;;;;5022215;28;20234;-85
2022/06/20 14:45:05;;;;;;;3.17;2.88;;;;;;;;;;5009049;28;20209;-85
2022/06/20 14:47:38;;;;;;;2.95;2.75;;;;;;;;;;5020993;28;20240;-83
2022/06/20 14:50:10;;;;;;;2.97;2.78;;;;;;;;;;5013456;28;20668;-83
2022/06/20 14:52:46;;;;;;;3.65;2.63;;;;;;;;;;5016730;28;20265;-83
2022/06/20 14:55:18;;;;;;;3.88;2.97;;;;;;;;;;5020962;28;20225;-85
2022/06/20 14:57:50;;;;;;;3.40;2.80;;;;;;;;;;5025302;28;20244;-83
2022/06/20 15:00:19;;;;;;;2.65;2.45;;;;;;;;;;5019107;28;20218;-83
2022/06/20 15:02:51;;;;;;;4.70;2.90;;;;;;;;;;5015493;28;20210;-85
2022/06/20 15:05:31;;;;;;;3.08;2.70;;;;;;;;;;5017956;28;20199;-85
2022/06/20 15:08:03;;;;;;;3.20;2.90;;;;;;;;;;5016192;28;20273;-85
2022/06/20 15:10:34;;;;;;;3.15;2.85;;;;;;;;;;5016116;28;20309;-85
2022/06/20 15:13:04;;;;;;;3.15;2.85;;;;;;;;;;5014570;28;20646;-84
2022/06/20 15:15:41;;;;;;;2.50;2.30;;;;;;;;;;5015112;28;20234;-85
2022/06/20 15:18:25;;;;;;;3.25;2.92;;;;;;;;;;5013913;28;20252;-86
2022/06/20 15:20:57;;;;;;;3.47;2.63;;;;;;;;;;5018662;28;20255;-85
2022/06/20 15:23:30;;;;;;;3.08;2.83;;;;;;;;;;5013397;28;20305;-83
2022/06/20 15:26:00;;;;;;;3.10;2.80;;;;;;;;;;5015943;28;20203;-84
2022/06/20 15:28:31;;;;;;;2.90;2.65;;;;;;;;;;5013309;28;20236;-84
2022/06/20 15:31:01;;;;;;;3.17;2.88;;;;;;;;;;5011199;28;20206;-84
2022/06/20 15:33:36;;;;;;;4.65;3.15;;;;;;;;;;5017455;28;20257;-84
2022/06/20 15:36:17;;;;;;;3.38;3.08;;;;;;;;;;5008302;28;20225;-88
2022/06/20 15:39:00;;;;;;;3.13;2.83;;;;;;;;;;5015934;28;20309;-86
2022/06/20 15:41:35;;;;;;;3.15;2.65;;;;;;;;;;5008655;28;20237;-85
2022/06/20 15:44:08;;;;;;;32.40;18.30;;;;;;;;;;5010382;28;20201;-86
2022/06/20 15:46:40;;;;;;;15.75;8.77;;;;;;;;;;5007988;28;20206;-86
2022/06/20 15:49:27;;;;;;;8.40;5.68;;;;;;;;;;5012797;28;20218;-84
2022/06/20 15:52:00;;;;;;;7.07;5.10;;;;;;;;;;5016023;28;20260;-87